Bastogne, Belgium
Current Conditions -  °F | °C
As of 11:50 AM on Saturday 01 Nov 2014 (Local Time) from ELLX Reporting Station
Moderate Fog Moderate Fog  
Wind Chill: 50°   Ceiling: 100
Heat Index: 50°   Visibility: 0.37mi
Dew Point: 50°   Wind: 6mph
Humidity: 100%   Direction: 130°SE
Pressure: 30.18"   Gusts: NA
Location:  50°N, 5.72°E
Report Text: ELLX 011050Z 13005KT 110V170 0600 R24/0800VP1500U FG BKN001 10/10 Q1022 BECMG 2000 BR SCT003
Loading
Personal Weather Stations






























Interactive Weather Map
Tropical Storm Tracking
New forecast layout! Learn more

10-Day Weather Forecast

Advertisements
Track Severe Weather on mobile